Time;durP1;ratioP1;P1;durP2;ratioP2;P2;SDS_P1;SDS_P2;PMS_P1;PMS_P2;Temp;Humidity;BMP_temperature;BMP_pressure;BME280_temperature;BME280_humidity;BME280_pressure;Samples;Min_cycle;Max_cycle;Signal;HPM_P1;HPM_P2
2021/12/11 00:00:53;;;;;;;10.40;7.83;;;7.50;99.90;;;;;;5089572;28;20445;-72
2021/12/11 00:03:23;;;;;;;14.90;8.70;;;7.40;99.90;;;;;;5090907;28;20527;-70
2021/12/11 00:05:53;;;;;;;11.47;7.33;;;7.40;99.90;;;;;;5090486;28;20475;-72
2021/12/11 00:08:25;;;;;;;12.77;7.60;;;7.50;99.90;;;;;;5091090;28;20524;-74
2021/12/11 00:10:57;;;;;;;10.47;6.77;;;7.50;99.90;;;;;;5091066;28;20939;-74
2021/12/11 00:13:27;;;;;;;11.70;7.00;;;7.60;99.90;;;;;;5089959;28;20482;-72
2021/12/11 00:15:55;;;;;;;13.17;7.27;;;7.50;99.90;;;;;;5090125;28;20459;-71
2021/12/11 00:18:25;;;;;;;9.20;6.17;;;7.60;99.90;;;;;;5091104;28;20454;-72
2021/12/11 00:20:57;;;;;;;8.10;5.33;;;7.20;99.90;;;;;;5090684;28;20496;-72
2021/12/11 00:23:28;;;;;;;9.40;6.10;;;7.10;99.90;;;;;;5091048;28;20450;-73
2021/12/11 00:25:57;;;;;;;11.47;5.77;;;7.10;99.90;;;;;;5090002;28;21209;-72
2021/12/11 00:28:25;;;;;;;8.10;4.90;;;6.90;99.90;;;;;;5090357;28;20494;-73
2021/12/11 00:30:53;;;;;;;10.93;5.97;;;6.90;99.90;;;;;;5090400;28;20459;-70
2021/12/11 00:33:24;;;;;;;8.80;5.00;;;6.90;99.90;;;;;;5086354;28;20455;-72
2021/12/11 00:35:54;;;;;;;12.07;6.10;;;6.80;99.90;;;;;;5090574;28;20462;-73
2021/12/11 00:38:24;;;;;;;9.07;5.67;;;6.60;99.90;;;;;;5090565;28;20439;-71
2021/12/11 00:40:53;;;;;;;8.00;5.40;;;6.50;99.90;;;;;;5090424;28;20452;-69
2021/12/11 00:43:28;;;;;;;9.73;4.60;;;6.60;99.90;;;;;;5089364;28;20458;-73
2021/12/11 00:45:57;;;;;;;7.83;4.70;;;6.50;99.90;;;;;;5087951;28;21010;-70
2021/12/11 00:48:27;;;;;;;8.60;5.13;;;6.60;99.90;;;;;;5089957;28;20485;-69
2021/12/11 00:50:58;;;;;;;10.73;4.97;;;6.60;99.90;;;;;;5089341;28;20450;-71
2021/12/11 00:53:29;;;;;;;9.27;4.87;;;6.80;99.90;;;;;;5089833;28;20531;-73
2021/12/11 00:55:59;;;;;;;8.07;4.53;;;6.90;99.90;;;;;;5090017;28;20818;-71
2021/12/11 00:58:31;;;;;;;9.40;4.50;;;6.80;99.90;;;;;;5090157;28;20926;-73
2021/12/11 01:01:03;;;;;;;9.60;5.10;;;6.90;99.90;;;;;;5090193;28;20462;-70
2021/12/11 01:03:34;;;;;;;7.53;4.47;;;7.00;99.90;;;;;;5089231;28;20463;-71
2021/12/11 01:06:06;;;;;;;9.00;5.20;;;7.10;99.90;;;;;;5089754;28;20485;-72
2021/12/11 01:08:36;;;;;;;13.63;4.83;;;7.10;99.90;;;;;;5089016;28;20490;-70
2021/12/11 01:11:09;;;;;;;8.33;4.37;;;7.20;99.90;;;;;;5089747;28;20882;-71
2021/12/11 01:13:45;;;;;;;6.00;4.10;;;6.90;99.90;;;;;;5089403;28;20490;-73
2021/12/11 01:16:15;;;;;;;6.00;4.13;;;7.00;99.90;;;;;;5090091;28;20474;-72
2021/12/11 01:18:46;;;;;;;8.10;4.13;;;7.20;99.90;;;;;;5089705;28;20449;-70
2021/12/11 01:21:32;;;;;;;6.33;3.90;;;7.20;99.90;;;;;;5089527;28;20946;-71
2021/12/11 01:24:29;;;;;;;6.03;3.10;;;7.30;99.90;;;;;;5081440;28;20456;-71
2021/12/11 01:26:58;;;;;;;6.63;3.37;;;7.40;99.90;;;;;;5089068;28;21261;-71
2021/12/11 01:29:28;;;;;;;8.10;4.53;;;7.40;99.90;;;;;;5089902;28;20827;-72
2021/12/11 01:31:57;;;;;;;7.07;4.00;;;7.30;99.90;;;;;;5089374;28;20486;-70
2021/12/11 01:34:24;;;;;;;8.60;3.97;;;7.30;99.90;;;;;;5089537;28;20541;-73
2021/12/11 01:36:52;;;;;;;6.40;3.67;;;7.20;99.90;;;;;;5088865;28;20545;-75
2021/12/11 01:39:23;;;;;;;8.57;4.43;;;7.20;99.90;;;;;;5088861;28;20457;-71
2021/12/11 01:41:51;;;;;;;6.60;3.60;;;7.20;99.90;;;;;;5089300;28;20446;-72
2021/12/11 01:44:22;;;;;;;5.90;3.27;;;7.10;99.90;;;;;;5089212;28;20458;-71
2021/12/11 01:46:50;;;;;;;5.43;3.53;;;7.10;99.90;;;;;;5088979;28;20485;-72
2021/12/11 01:49:22;;;;;;;8.43;3.37;;;7.10;99.90;;;;;;5088806;28;20512;-72
2021/12/11 01:51:53;;;;;;;5.70;3.47;;;6.90;99.90;;;;;;5089144;28;20927;-72
2021/12/11 01:54:23;;;;;;;5.70;3.10;;;6.90;99.90;;;;;;5089381;28;21256;-73
2021/12/11 01:56:59;;;;;;;5.43;3.60;;;7.00;99.90;;;;;;5089074;28;20471;-70
2021/12/11 01:59:29;;;;;;;6.30;4.03;;;7.00;99.90;;;;;;5075213;28;20544;-71
2021/12/11 02:02:03;;;;;;;6.13;4.20;;;7.10;99.90;;;;;;5093677;28;20448;-70
2021/12/11 02:04:32;;;;;;;4.50;2.87;;;7.10;99.90;;;;;;5093794;28;20982;-69
2021/12/11 02:07:03;;;;;;;5.67;3.20;;;7.10;99.90;;;;;;5092524;28;21012;-71
2021/12/11 02:09:32;;;;;;;8.20;3.90;;;7.10;99.90;;;;;;5095806;28;20919;-70
2021/12/11 02:12:07;;;;;;;6.37;4.33;;;7.00;99.90;;;;;;5093455;28;20494;-72
2021/12/11 02:14:39;;;;;;;8.13;3.30;;;6.80;99.90;;;;;;5088400;28;20992;-72
2021/12/11 02:17:16;;;;;;;6.40;3.83;;;6.90;99.90;;;;;;5088877;28;20492;-70
2021/12/11 02:19:45;;;;;;;5.87;3.27;;;7.00;99.90;;;;;;5090920;28;20553;-70
2021/12/11 02:22:17;;;;;;;7.60;3.80;;;7.00;99.90;;;;;;5095868;28;20814;-71
2021/12/11 02:24:47;;;;;;;8.50;4.20;;;7.00;99.90;;;;;;5096206;28;20443;-71
2021/12/11 02:27:18;;;;;;;4.80;3.10;;;7.00;99.90;;;;;;5095171;28;20851;-70
2021/12/11 02:29:48;;;;;;;5.40;3.60;;;7.00;99.90;;;;;;5095567;27;20996;-74
2021/12/11 02:32:25;;;;;;;6.10;3.77;;;7.00;99.90;;;;;;5095026;28;20441;-72
2021/12/11 02:34:56;;;;;;;5.83;4.00;;;6.90;99.90;;;;;;5095389;28;20894;-72
2021/12/11 02:37:36;;;;;;;7.20;3.97;;;6.70;99.90;;;;;;5095411;28;20490;-69
2021/12/11 02:40:11;;;;;;;7.87;3.90;;;6.80;99.90;;;;;;5095271;28;20483;-73
2021/12/11 02:42:42;;;;;;;6.10;3.90;;;6.80;99.90;;;;;;5094787;28;20454;-73
2021/12/11 02:45:14;;;;;;;5.70;3.60;;;6.90;99.90;;;;;;5096006;28;20454;-73
2021/12/11 02:47:46;;;;;;;6.80;3.83;;;6.80;99.90;;;;;;5095129;28;20499;-72
2021/12/11 02:50:17;;;;;;;8.13;3.53;;;6.60;99.90;;;;;;5094910;28;20459;-71
2021/12/11 02:52:48;;;;;;;5.77;3.63;;;6.70;99.90;;;;;;5094635;28;20476;-72
2021/12/11 02:55:20;;;;;;;7.30;4.00;;;6.70;99.90;;;;;;5094857;28;20998;-71
2021/12/11 02:57:51;;;;;;;7.17;4.80;;;6.80;99.90;;;;;;5095229;28;20505;-73
2021/12/11 03:00:24;;;;;;;7.93;4.60;;;7.00;99.90;;;;;;5095400;28;20544;-72
2021/12/11 03:03:01;;;;;;;7.93;3.90;;;7.00;99.90;;;;;;5095224;28;20575;-74
2021/12/11 03:05:36;;;;;;;6.63;3.77;;;7.10;99.90;;;;;;5095014;28;20459;-75
2021/12/11 03:08:08;;;;;;;7.27;4.17;;;7.00;99.90;;;;;;5095160;28;20525;-72
2021/12/11 03:10:36;;;;;;;5.70;3.77;;;7.10;99.90;;;;;;5094275;28;20462;-71
2021/12/11 03:13:05;;;;;;;7.47;3.90;;;7.20;99.90;;;;;;5094662;28;20498;-72
2021/12/11 03:15:32;;;;;;;6.10;4.07;;;7.20;99.90;;;;;;5079154;28;20622;-71
2021/12/11 03:18:01;;;;;;;6.40;4.03;;;7.20;99.90;;;;;;5095318;28;21032;-74
2021/12/11 03:20:28;;;;;;;6.87;3.37;;;7.20;99.90;;;;;;5095403;28;20512;-74
2021/12/11 03:22:55;;;;;;;7.87;4.33;;;7.20;99.90;;;;;;5095378;28;20869;-71
2021/12/11 03:25:28;;;;;;;7.20;3.40;;;7.20;99.90;;;;;;5095622;28;21007;-72
2021/12/11 03:27:55;;;;;;;7.10;4.07;;;7.20;99.90;;;;;;5095476;28;20914;-73
2021/12/11 03:30:25;;;;;;;5.90;3.50;;;7.20;99.90;;;;;;5095603;28;20458;-73
2021/12/11 03:32:55;;;;;;;5.93;4.30;;;7.20;99.90;;;;;;5091724;28;20451;-71
2021/12/11 03:35:24;;;;;;;6.80;3.47;;;7.00;99.90;;;;;;5092246;28;20453;-73
2021/12/11 03:37:52;;;;;;;7.40;4.33;;;6.90;99.90;;;;;;5092303;28;20520;-71
2021/12/11 03:40:20;;;;;;;6.70;3.63;;;6.90;99.90;;;;;;5091969;28;20504;-72
2021/12/11 03:42:51;;;;;;;7.23;3.40;;;6.80;99.90;;;;;;5092175;28;20454;-71
2021/12/11 03:45:23;;;;;;;5.60;3.50;;;6.90;99.90;;;;;;5092019;28;20938;-73
2021/12/11 03:47:55;;;;;;;5.50;3.03;;;7.00;99.90;;;;;;5091922;28;20499;-71
2021/12/11 03:50:23;;;;;;;5.67;3.60;;;6.90;99.90;;;;;;5092629;28;20453;-74
2021/12/11 03:52:52;;;;;;;6.80;3.40;;;6.90;99.90;;;;;;5091922;28;20465;-74
2021/12/11 03:55:23;;;;;;;6.03;3.33;;;6.90;99.90;;;;;;5091947;28;20453;-71
2021/12/11 03:57:58;;;;;;;5.10;3.37;;;6.90;99.90;;;;;;5091873;28;20559;-70
2021/12/11 04:00:28;;;;;;;6.57;3.70;;;6.90;99.90;;;;;;5091596;28;20550;-72
2021/12/11 04:03:02;;;;;;;7.60;3.73;;;7.00;99.90;;;;;;5091719;28;20458;-73
2021/12/11 04:05:30;;;;;;;5.37;3.47;;;6.80;99.90;;;;;;5091649;28;20471;-69
2021/12/11 04:07:57;;;;;;;5.00;3.00;;;6.80;99.90;;;;;;5091399;28;21059;-69
2021/12/11 04:10:27;;;;;;;5.47;3.33;;;6.80;99.90;;;;;;5091602;28;20511;-71
2021/12/11 04:12:58;;;;;;;6.57;3.40;;;6.80;99.90;;;;;;5091050;28;20496;-70
2021/12/11 04:15:25;;;;;;;5.10;2.90;;;6.80;99.90;;;;;;5091740;28;20467;-71
2021/12/11 04:17:54;;;;;;;5.40;3.13;;;6.90;99.90;;;;;;5091104;28;20978;-70
2021/12/11 04:20:23;;;;;;;5.53;3.50;;;6.80;99.90;;;;;;5091506;28;20483;-74
2021/12/11 04:22:52;;;;;;;5.40;3.03;;;6.80;99.90;;;;;;5091256;28;20798;-71
2021/12/11 04:25:21;;;;;;;4.67;2.70;;;6.70;99.90;;;;;;5091386;28;20450;-71
2021/12/11 04:27:48;;;;;;;4.73;2.87;;;6.80;99.90;;;;;;5091093;28;21099;-72
2021/12/11 04:30:20;;;;;;;4.90;2.80;;;6.90;99.90;;;;;;5091297;28;20454;-71
2021/12/11 04:32:48;;;;;;;5.10;3.13;;;7.00;99.90;;;;;;5090851;28;20958;-71
2021/12/11 04:35:17;;;;;;;4.50;2.33;;;7.00;99.90;;;;;;5091205;28;20936;-71
2021/12/11 04:37:44;;;;;;;6.03;3.20;;;7.00;99.90;;;;;;5091052;28;20957;-70
2021/12/11 04:40:18;;;;;;;4.13;2.30;;;7.00;99.90;;;;;;5091270;28;20463;-75
2021/12/11 04:42:54;;;;;;;4.40;2.80;;;7.00;99.90;;;;;;5090203;28;20451;-69
2021/12/11 04:45:26;;;;;;;5.23;2.77;;;7.10;99.90;;;;;;5090832;28;20840;-73
2021/12/11 04:47:58;;;;;;;4.70;2.70;;;7.20;99.90;;;;;;5090505;28;21022;-72
2021/12/11 04:50:34;;;;;;;4.67;2.87;;;7.20;99.90;;;;;;5092699;28;20453;-70
2021/12/11 04:53:05;;;;;;;6.33;3.73;;;7.30;99.90;;;;;;5098859;28;20453;-70
2021/12/11 04:55:51;;;;;;;5.43;3.30;;;7.50;99.90;;;;;;5098279;28;20457;-71
2021/12/11 04:58:41;;;;;;;4.73;2.87;;;7.50;99.90;;;;;;5099661;28;20458;-69
2021/12/11 05:01:28;;;;;;;5.30;3.27;;;7.50;99.90;;;;;;5092332;28;20456;-71
2021/12/11 05:06:47;;;;;;;4.83;2.80;;;7.50;99.90;;;;;;5088496;28;20456;-71
2021/12/11 05:09:23;;;;;;;4.73;2.87;;;7.70;99.90;;;;;;5090696;28;20483;-75
2021/12/11 05:12:06;;;;;;;5.10;2.83;;;7.70;99.90;;;;;;5090119;28;20528;-69
2021/12/11 05:14:34;;;;;;;4.63;2.90;;;7.70;99.90;;;;;;5090578;28;20880;-70
2021/12/11 05:17:03;;;;;;;6.13;3.00;;;7.60;99.90;;;;;;5090088;28;20474;-72
2021/12/11 05:19:30;;;;;;;6.53;3.00;;;7.50;99.90;;;;;;5090253;28;20496;-69
2021/12/11 05:21:58;;;;;;;4.27;2.53;;;7.40;99.90;;;;;;5089887;28;20507;-70
2021/12/11 05:24:25;;;;;;;4.93;3.00;;;7.30;99.90;;;;;;5090211;28;20451;-71
2021/12/11 05:26:53;;;;;;;4.57;2.90;;;7.30;99.90;;;;;;5090312;28;20570;-72
2021/12/11 05:29:20;;;;;;;5.40;2.90;;;7.40;99.90;;;;;;5090015;28;20578;-73
2021/12/11 05:31:48;;;;;;;4.83;2.80;;;7.50;99.90;;;;;;5089903;28;20450;-71
2021/12/11 05:34:17;;;;;;;5.37;2.80;;;7.50;99.90;;;;;;5090095;28;20488;-70
2021/12/11 05:36:45;;;;;;;7.10;2.50;;;7.40;99.90;;;;;;5090001;28;20851;-70
2021/12/11 05:39:15;;;;;;;7.00;3.40;;;7.50;99.90;;;;;;5089618;28;20464;-69
2021/12/11 05:41:44;;;;;;;4.93;3.30;;;7.60;99.90;;;;;;5089970;28;20471;-71
2021/12/11 05:44:13;;;;;;;5.50;3.37;;;7.60;99.90;;;;;;5089889;28;20457;-71
2021/12/11 05:46:40;;;;;;;5.57;2.87;;;7.60;99.90;;;;;;5089704;28;20475;-70
2021/12/11 05:49:09;;;;;;;5.47;3.23;;;7.80;99.90;;;;;;5089205;28;20536;-73
2021/12/11 05:51:39;;;;;;;6.00;3.30;;;7.90;99.90;;;;;;5089876;28;20451;-71
2021/12/11 05:54:09;;;;;;;4.97;3.23;;;8.00;99.90;;;;;;5089409;28;20451;-72
2021/12/11 05:56:39;;;;;;;5.50;3.77;;;8.10;99.90;;;;;;5089510;28;20492;-72
2021/12/11 05:59:09;;;;;;;5.20;3.80;;;8.10;99.90;;;;;;5089595;28;20814;-71
2021/12/11 06:01:40;;;;;;;5.20;3.50;;;8.10;99.90;;;;;;5089626;28;20972;-71
2021/12/11 06:04:10;;;;;;;4.80;2.97;;;8.10;99.90;;;;;;5089210;28;20443;-71
2021/12/11 06:06:39;;;;;;;5.77;3.47;;;8.20;99.90;;;;;;5089475;28;20483;-68
2021/12/11 06:09:09;;;;;;;6.97;3.40;;;8.30;99.90;;;;;;5089290;28;20487;-68
2021/12/11 06:11:36;;;;;;;6.40;3.60;;;8.30;99.90;;;;;;5089503;28;20475;-68
2021/12/11 06:14:04;;;;;;;5.10;3.33;;;8.40;99.90;;;;;;5088784;28;20947;-69
2021/12/11 06:16:32;;;;;;;6.07;3.87;;;8.20;99.90;;;;;;5088850;28;20467;-68
2021/12/11 06:19:02;;;;;;;6.60;4.07;;;8.30;99.90;;;;;;5088968;28;20458;-70
2021/12/11 06:21:30;;;;;;;6.00;4.07;;;8.40;99.90;;;;;;5088689;28;20961;-70
2021/12/11 06:23:59;;;;;;;5.70;3.50;;;8.50;99.90;;;;;;5089036;28;20452;-71
2021/12/11 06:26:27;;;;;;;6.20;4.20;;;8.50;99.90;;;;;;5088639;28;20561;-71
2021/12/11 06:28:54;;;;;;;7.93;3.93;;;8.50;99.90;;;;;;5088873;28;20545;-70
2021/12/11 06:31:21;;;;;;;5.53;3.27;;;8.60;99.90;;;;;;5089058;28;20503;-68
2021/12/11 06:33:50;;;;;;;6.93;3.93;;;8.70;99.90;;;;;;5089503;28;20440;-71
2021/12/11 06:36:21;;;;;;;8.13;4.20;;;8.60;99.90;;;;;;5089208;28;20478;-70
2021/12/11 06:38:51;;;;;;;6.63;3.87;;;8.70;99.90;;;;;;5089247;28;20805;-71
2021/12/11 06:41:23;;;;;;;5.80;4.00;;;8.70;99.90;;;;;;5089338;28;20458;-70
2021/12/11 06:43:50;;;;;;;10.00;5.20;;;8.80;99.90;;;;;;5089196;28;20466;-69
2021/12/11 06:46:19;;;;;;;8.40;4.10;;;8.90;99.90;;;;;;5089114;28;20500;-72
2021/12/11 06:48:46;;;;;;;8.10;5.93;;;8.90;99.90;;;;;;5089139;28;20487;-68
2021/12/11 06:51:13;;;;;;;9.60;6.33;;;8.90;99.90;;;;;;5089401;28;20532;-71
2021/12/11 06:53:43;;;;;;;14.90;6.80;;;8.80;99.90;;;;;;5089026;28;20505;-71
2021/12/11 06:56:13;;;;;;;12.40;6.93;;;8.80;99.90;;;;;;5088969;28;20536;-70
2021/12/11 06:58:41;;;;;;;11.57;7.13;;;8.90;99.90;;;;;;5089051;28;20459;-69
2021/12/11 07:01:10;;;;;;;9.43;6.90;;;8.90;99.90;;;;;;5088632;28;20923;-71
2021/12/11 07:03:39;;;;;;;10.10;6.47;;;8.80;99.90;;;;;;5089161;28;20456;-71
2021/12/11 07:06:07;;;;;;;12.07;7.60;;;8.70;99.90;;;;;;5088968;28;20468;-70
2021/12/11 07:08:36;;;;;;;8.20;5.90;;;8.80;99.90;;;;;;5092373;28;20491;-70
2021/12/11 07:11:04;;;;;;;8.07;5.67;;;8.90;99.90;;;;;;5092635;28;20460;-69
2021/12/11 07:13:33;;;;;;;11.40;7.13;;;9.00;99.90;;;;;;5092370;28;20491;-70
2021/12/11 07:16:01;;;;;;;9.53;6.63;;;9.00;99.90;;;;;;5092199;28;20605;-68
2021/12/11 07:18:29;;;;;;;8.10;5.90;;;9.10;99.90;;;;;;5092925;28;20436;-71
2021/12/11 07:20:56;;;;;;;9.87;6.87;;;9.00;99.90;;;;;;5092294;28;20448;-71
2021/12/11 07:23:24;;;;;;;12.13;6.70;;;9.00;99.90;;;;;;5092345;28;20857;-71
2021/12/11 07:25:54;;;;;;;11.50;7.40;;;9.00;99.90;;;;;;5092433;28;20459;-69
2021/12/11 07:28:21;;;;;;;9.50;7.50;;;9.10;99.90;;;;;;5092252;28;20877;-68
2021/12/11 07:30:51;;;;;;;10.87;7.20;;;9.10;99.90;;;;;;5092374;28;20455;-68
2021/12/11 07:33:20;;;;;;;12.37;7.23;;;9.20;99.90;;;;;;5092493;28;20460;-68
2021/12/11 07:35:48;;;;;;;13.03;6.60;;;9.20;99.90;;;;;;5092316;28;20525;-67
2021/12/11 07:38:16;;;;;;;11.83;7.57;;;9.30;99.90;;;;;;5091923;28;20451;-68
2021/12/11 07:40:46;;;;;;;11.20;7.70;;;9.30;99.90;;;;;;5092115;28;20448;-67
2021/12/11 07:43:14;;;;;;;12.20;7.87;;;9.30;99.90;;;;;;5092130;28;20444;-68
2021/12/11 07:45:42;;;;;;;8.87;7.43;;;9.50;99.90;;;;;;5092055;28;20468;-68
2021/12/11 07:48:10;;;;;;;11.00;6.90;;;9.60;99.90;;;;;;5092139;28;20452;-68
2021/12/11 07:50:40;;;;;;;12.63;9.00;;;9.80;99.90;;;;;;5092233;28;20483;-74
2021/12/11 07:53:07;;;;;;;9.60;7.20;;;10.00;99.90;;;;;;5092534;28;20452;-75
2021/12/11 07:55:35;;;;;;;13.53;8.67;;;10.30;99.90;;;;;;5092239;28;20452;-76
2021/12/11 07:58:04;;;;;;;12.93;8.77;;;10.30;99.90;;;;;;5092062;28;20475;-74
2021/12/11 08:00:31;;;;;;;14.83;8.67;;;10.40;99.90;;;;;;5091771;28;21291;-74
2021/12/11 08:02:58;;;;;;;18.37;9.47;;;10.40;99.90;;;;;;5091705;28;20452;-68
2021/12/11 08:05:27;;;;;;;13.20;10.50;;;10.50;99.90;;;;;;5091681;28;20473;-68
2021/12/11 08:08:00;;;;;;;14.10;9.60;;;10.50;99.90;;;;;;5091675;28;20578;-70
2021/12/11 08:10:28;;;;;;;14.27;9.33;;;10.60;99.90;;;;;;5091909;28;20491;-66
2021/12/11 08:12:55;;;;;;;14.27;9.87;;;10.60;99.90;;;;;;5090959;28;20896;-70
2021/12/11 08:15:23;;;;;;;15.40;10.57;;;10.60;99.90;;;;;;5091171;28;20444;-69
2021/12/11 08:17:54;;;;;;;17.87;9.43;;;10.60;99.90;;;;;;5091078;28;20464;-68
2021/12/11 08:20:23;;;;;;;17.47;11.60;;;10.60;99.90;;;;;;5091582;28;20812;-67
2021/12/11 08:22:51;;;;;;;15.97;12.07;;;10.50;99.90;;;;;;5090807;28;20458;-68
2021/12/11 08:25:20;;;;;;;18.40;13.27;;;10.60;99.90;;;;;;5091214;28;20448;-68
2021/12/11 08:27:48;;;;;;;16.00;13.63;;;10.80;99.90;;;;;;5091116;28;20853;-67
2021/12/11 08:30:16;;;;;;;15.43;12.73;;;11.00;99.90;;;;;;5090849;28;20486;-68
2021/12/11 08:32:43;;;;;;;17.27;12.97;;;11.00;99.90;;;;;;5090887;28;20459;-68
2021/12/11 08:35:14;;;;;;;17.00;13.73;;;11.00;99.90;;;;;;5091124;28;20785;-68
2021/12/11 08:37:44;;;;;;;15.80;12.47;;;11.10;99.90;;;;;;5090731;28;20937;-67
2021/12/11 08:40:14;;;;;;;16.73;13.30;;;11.20;99.90;;;;;;5091253;28;20542;-69
2021/12/11 08:42:43;;;;;;;15.60;12.13;;;11.20;99.90;;;;;;5090774;28;20444;-69
2021/12/11 08:45:20;;;;;;;17.13;13.80;;;11.30;99.90;;;;;;5090823;28;20497;-68
2021/12/11 08:47:50;;;;;;;19.20;13.67;;;11.40;99.90;;;;;;5091013;28;20479;-68
2021/12/11 08:50:20;;;;;;;14.73;12.80;;;11.50;99.90;;;;;;5090907;28;20917;-67
2021/12/11 08:52:49;;;;;;;15.60;12.20;;;11.50;99.90;;;;;;5090497;28;20478;-67
2021/12/11 08:55:21;;;;;;;16.47;13.80;;;11.60;99.90;;;;;;5090751;28;20475;-73
2021/12/11 08:57:49;;;;;;;17.43;14.87;;;11.60;99.90;;;;;;5090702;28;20516;-70
2021/12/11 09:00:24;;;;;;;20.43;16.23;;;11.50;99.90;;;;;;5090609;28;20553;-69
2021/12/11 09:02:55;;;;;;;20.30;16.07;;;11.70;99.90;;;;;;5090483;28;20496;-68
2021/12/11 09:05:26;;;;;;;20.03;15.77;;;11.80;99.90;;;;;;5090548;28;20448;-69
2021/12/11 09:07:58;;;;;;;19.43;13.40;;;11.90;99.90;;;;;;5090072;28;20472;-69
2021/12/11 09:10:32;;;;;;;14.77;11.80;;;12.00;99.90;;;;;;5090465;28;20499;-69
2021/12/11 09:13:12;;;;;;;17.27;11.90;;;12.00;99.90;;;;;;5089718;28;20541;-69
2021/12/11 09:15:44;;;;;;;13.80;10.23;;;11.90;99.90;;;;;;5090534;28;20455;-69
2021/12/11 09:18:16;;;;;;;12.00;9.60;;;11.90;99.90;;;;;;5090057;28;20448;-69
2021/12/11 09:20:47;;;;;;;11.67;8.70;;;11.90;99.90;;;;;;5089897;28;20933;-69
2021/12/11 09:23:19;;;;;;;13.10;9.00;;;11.90;99.90;;;;;;5090127;28;20455;-69
2021/12/11 09:25:51;;;;;;;14.30;10.23;;;11.80;99.90;;;;;;5090160;28;20781;-69
2021/12/11 09:28:22;;;;;;;11.93;8.73;;;11.70;99.90;;;;;;5089713;28;20440;-69
2021/12/11 09:30:54;;;;;;;13.70;9.57;;;11.70;99.90;;;;;;5089342;28;20979;-69
2021/12/11 09:33:25;;;;;;;15.53;8.43;;;11.70;99.90;;;;;;5089753;28;20521;-68
2021/12/11 09:35:55;;;;;;;9.13;6.97;;;11.80;99.90;;;;;;5090095;28;20456;-69
2021/12/11 09:38:25;;;;;;;9.07;6.33;;;11.90;99.90;;;;;;5090183;28;20456;-69
2021/12/11 09:40:58;;;;;;;10.47;6.67;;;11.90;99.90;;;;;;5089983;28;20452;-69
2021/12/11 09:43:42;;;;;;;9.63;6.40;;;12.00;99.90;;;;;;5089510;28;20534;-69
2021/12/11 09:46:12;;;;;;;9.57;5.60;;;11.90;99.90;;;;;;5089746;28;20472;-68
2021/12/11 09:48:40;;;;;;;6.93;4.83;;;12.00;99.90;;;;;;5089876;28;20927;-69
2021/12/11 09:51:12;;;;;;;5.67;3.60;;;12.10;99.90;;;;;;5089182;28;20488;-69
2021/12/11 09:53:44;;;;;;;7.63;4.23;;;12.10;99.90;;;;;;5089395;28;20546;-69
2021/12/11 09:56:14;;;;;;;7.40;4.63;;;12.00;99.90;;;;;;5089841;28;20513;-69
2021/12/11 09:58:43;;;;;;;8.17;3.90;;;11.60;99.90;;;;;;5089517;28;20449;-70
2021/12/11 10:01:14;;;;;;;8.30;4.10;;;11.60;99.90;;;;;;5089544;28;20444;-69
2021/12/11 10:03:47;;;;;;;5.10;3.17;;;11.80;99.90;;;;;;5089012;28;21068;-69
2021/12/11 10:06:37;;;;;;;7.60;3.43;;;11.70;99.90;;;;;;5089093;28;20483;-68
2021/12/11 10:09:18;;;;;;;8.07;3.80;;;11.70;99.90;;;;;;5088953;28;21039;-69
2021/12/11 10:11:54;;;;;;;6.17;3.70;;;11.80;99.90;;;;;;5089207;28;20452;-69
2021/12/11 10:14:26;;;;;;;6.37;2.90;;;11.90;99.90;;;;;;5089241;28;20448;-70
2021/12/11 10:16:57;;;;;;;7.40;3.63;;;11.90;99.90;;;;;;5089397;28;21002;-70
2021/12/11 10:19:29;;;;;;;7.00;3.97;;;11.90;99.90;;;;;;5089440;28;20448;-69
2021/12/11 10:22:02;;;;;;;5.87;3.90;;;12.00;99.90;;;;;;5089592;28;20452;-69
2021/12/11 10:24:30;;;;;;;6.17;3.57;;;12.00;99.90;;;;;;5089385;28;20864;-69
2021/12/11 10:26:59;;;;;;;8.50;4.17;;;12.10;99.90;;;;;;5088808;28;20472;-69
2021/12/11 10:29:28;;;;;;;7.53;4.23;;;12.10;99.90;;;;;;5089039;28;20506;-69
2021/12/11 10:31:58;;;;;;;9.60;6.03;;;12.20;99.90;;;;;;5089319;28;20501;-68
2021/12/11 10:34:29;;;;;;;10.27;6.20;;;12.30;99.90;;;;;;5089258;28;20841;-68
2021/12/11 10:37:01;;;;;;;9.17;6.50;;;12.20;99.90;;;;;;5089265;28;20525;-69
2021/12/11 10:39:30;;;;;;;11.60;7.63;;;12.20;99.90;;;;;;5089648;28;20997;-72
2021/12/11 10:41:59;;;;;;;13.07;7.17;;;12.10;99.90;;;;;;5092479;28;20566;-68
2021/12/11 10:44:31;;;;;;;12.27;8.03;;;12.00;99.90;;;;;;5093316;28;20443;-72
2021/12/11 10:47:01;;;;;;;12.17;8.07;;;12.10;99.90;;;;;;5093365;28;20704;-66
2021/12/11 10:49:29;;;;;;;17.30;10.07;;;12.00;99.90;;;;;;5092901;28;20444;-68
2021/12/11 10:52:00;;;;;;;24.20;17.17;;;12.00;99.90;;;;;;5093163;28;20498;-68
2021/12/11 10:54:28;;;;;;;34.27;26.53;;;12.10;99.90;;;;;;5093009;28;20456;-67
2021/12/11 10:56:56;;;;;;;35.93;28.40;;;12.10;99.90;;;;;;5092985;28;20888;-68
2021/12/11 10:59:26;;;;;;;40.60;31.40;;;12.00;99.90;;;;;;5093159;28;20543;-67
2021/12/11 11:01:58;;;;;;;40.47;31.60;;;12.00;99.90;;;;;;5093148;28;20497;-68
2021/12/11 11:04:28;;;;;;;33.80;28.43;;;12.00;99.90;;;;;;5092536;28;20552;-70
2021/12/11 11:06:56;;;;;;;35.47;28.87;;;12.00;99.90;;;;;;5093011;28;20988;-67
2021/12/11 11:09:24;;;;;;;32.10;23.93;;;12.00;99.90;;;;;;5093080;28;20447;-71
2021/12/11 11:11:55;;;;;;;29.23;22.40;;;12.10;99.90;;;;;;5092377;28;20452;-68
2021/12/11 11:14:23;;;;;;;22.77;17.23;;;12.10;99.90;;;;;;5092598;28;20444;-66
2021/12/11 11:16:59;;;;;;;18.50;15.80;;;12.10;99.90;;;;;;5092675;28;20463;-67
2021/12/11 11:19:29;;;;;;;18.27;12.57;;;12.20;99.90;;;;;;5092470;28;20448;-67
2021/12/11 11:21:59;;;;;;;17.37;9.90;;;12.20;99.90;;;;;;5092185;28;20448;-68
2021/12/11 11:24:28;;;;;;;15.00;9.80;;;12.10;99.90;;;;;;5092420;28;20497;-69
2021/12/11 11:26:56;;;;;;;11.73;8.20;;;12.00;99.90;;;;;;5092470;28;20468;-67
2021/12/11 11:29:26;;;;;;;10.50;7.40;;;12.00;99.90;;;;;;5092518;28;20443;-68
2021/12/11 11:31:58;;;;;;;11.80;7.97;;;12.00;99.90;;;;;;5092482;28;20573;-67
2021/12/11 11:34:27;;;;;;;12.60;8.30;;;12.00;99.90;;;;;;5091938;28;20452;-68
2021/12/11 11:36:57;;;;;;;12.03;8.60;;;12.00;99.90;;;;;;5092158;28;21017;-72
2021/12/11 11:39:27;;;;;;;15.77;8.10;;;12.10;99.90;;;;;;5093963;28;20448;-78
2021/12/11 11:41:58;;;;;;;12.30;6.83;;;12.10;99.90;;;;;;5092703;28;20508;-75
2021/12/11 11:44:28;;;;;;;8.77;6.00;;;12.10;99.90;;;;;;5092469;28;20513;-75
2021/12/11 11:47:00;;;;;;;7.67;6.03;;;12.10;99.90;;;;;;5092210;28;20619;-76
2021/12/11 11:49:28;;;;;;;12.03;7.30;;;12.10;99.90;;;;;;5092609;28;20547;-79
2021/12/11 11:51:58;;;;;;;9.20;5.93;;;12.10;99.90;;;;;;5092130;28;20480;-81
2021/12/11 11:54:27;;;;;;;9.03;5.80;;;12.10;99.90;;;;;;5091979;28;20464;-77
2021/12/11 11:56:59;;;;;;;15.63;5.27;;;12.10;99.90;;;;;;5091962;28;20502;-77
2021/12/11 11:59:27;;;;;;;8.87;5.73;;;12.10;99.90;;;;;;5092297;28;20456;-69
2021/12/11 12:02:01;;;;;;;8.67;5.70;;;12.10;99.90;;;;;;5092154;28;20452;-71
2021/12/11 12:04:31;;;;;;;8.50;5.40;;;12.10;99.90;;;;;;5091806;28;20505;-72
2021/12/11 12:07:00;;;;;;;11.90;5.50;;;12.00;99.90;;;;;;5091840;28;20529;-73
2021/12/11 12:09:29;;;;;;;9.50;5.40;;;12.00;99.90;;;;;;5092078;28;20455;-68
2021/12/11 12:11:58;;;;;;;8.33;5.30;;;11.80;99.90;;;;;;5090884;28;20548;-69
2021/12/11 12:14:30;;;;;;;14.83;5.57;;;11.70;99.90;;;;;;5090483;28;20876;-71
2021/12/11 12:16:59;;;;;;;10.10;5.47;;;11.80;99.90;;;;;;5091494;28;20819;-71
2021/12/11 12:19:27;;;;;;;7.93;5.07;;;11.90;99.90;;;;;;5091279;28;20944;-70
2021/12/11 12:21:57;;;;;;;9.13;6.60;;;11.90;99.90;;;;;;5091132;28;20928;-70
2021/12/11 12:24:27;;;;;;;8.40;5.50;;;11.80;99.90;;;;;;5091406;28;20532;-72
2021/12/11 12:26:54;;;;;;;11.13;5.90;;;11.80;99.90;;;;;;5090840;28;20480;-70
2021/12/11 12:29:22;;;;;;;8.43;6.50;;;11.90;99.90;;;;;;5091252;28;20448;-70
2021/12/11 12:31:53;;;;;;;12.90;5.53;;;11.90;99.90;;;;;;5091277;28;20494;-70
2021/12/11 12:34:22;;;;;;;9.63;6.00;;;11.80;99.90;;;;;;5091128;28;20448;-71
2021/12/11 12:36:50;;;;;;;9.67;6.13;;;11.70;99.90;;;;;;5090969;28;20537;-71
2021/12/11 12:39:21;;;;;;;11.03;6.10;;;11.70;99.90;;;;;;5091109;28;20448;-71
2021/12/11 12:41:57;;;;;;;9.97;5.37;;;11.60;99.90;;;;;;5090945;28;20480;-71
2021/12/11 12:44:27;;;;;;;11.17;5.70;;;11.70;99.90;;;;;;5091041;28;20502;-70
2021/12/11 12:47:00;;;;;;;8.57;5.20;;;11.60;99.90;;;;;;5090716;28;20525;-70
2021/12/11 12:49:31;;;;;;;10.60;5.20;;;11.60;99.90;;;;;;5091006;28;20452;-70
2021/12/11 12:52:05;;;;;;;6.50;4.73;;;11.70;99.90;;;;;;5090842;28;20958;-71
2021/12/11 12:54:33;;;;;;;8.13;4.10;;;11.60;99.90;;;;;;5090489;28;20854;-70
2021/12/11 12:57:11;;;;;;;8.60;4.50;;;11.60;99.90;;;;;;5090635;28;20668;-70
2021/12/11 12:59:43;;;;;;;8.33;4.10;;;11.60;99.90;;;;;;5090737;28;20553;-70
2021/12/11 13:02:17;;;;;;;9.37;4.03;;;11.70;99.90;;;;;;5090593;28;20977;-70
2021/12/11 13:04:49;;;;;;;9.53;4.30;;;11.70;99.90;;;;;;5089155;28;20455;-71
2021/12/11 13:07:18;;;;;;;13.20;4.40;;;11.70;99.90;;;;;;5090266;28;20554;-70